Island Supplier — WCZ2444 — position and weather

sailwx.info

Track history (hours):
 
Tides and Currents Weather Stations Pressure Air Temp Water Temp Dewpoint Dewpoint Depression Visibility Wind Speed Wind Dir Waves Ship Positions

Island Supplier

Owner: TWO HARBORS ENT, AVALON, CA. More information available from US FCC via Universal Licensing System and Coast Guard Vessel Documentation Center.

Last reported at 2015-Jan-28 15:33 UTC. Time now 2015-Jan-31 08:34 UTC.
Position N 33°45' W 118°16'.

Length 22 m; draft 1 m.

Type: Cargo ship. MMSI: 366765690.

Date/timePositionNaut miles runAvg speedWind from/ knotsBaromVisibWave heightAir tempDewpointWater temp
2015-Jan-28 15:33N 33°45' W 118°16'0 0.1
2015-Jan-28 14:14N 33°45' W 118°16'11 6.3
2015-Jan-28 12:33N 33°35' W 118°20'7 7.3
2015-Jan-28 11:33N 33°30' W 118°27'  
2015-Jan-23 20:28N 33°32' W 118°31'15 7.3
2015-Jan-23 18:29N 33°40' W 118°17'5 4.3
2015-Jan-23 17:25N 33°45' W 118°16'0 0.0
2015-Jan-23 15:25N 33°45' W 118°16'0 0.0
2015-Jan-23 13:13N 33°45' W 118°16'3 4.6
2015-Jan-23 12:33N 33°42' W 118°15'7 6.9
2015-Jan-23 11:33N 33°37' W 118°20'9 7.7
2015-Jan-23 10:23N 33°30' W 118°27'2 0.1
2015-Jan-22 16:33N 33°29' W 118°28'7 7.4
2015-Jan-22 15:34N 33°34' W 118°22'7 6.8
2015-Jan-22 14:34N 33°39' W 118°16'6 6.0
2015-Jan-22 13:33N 33°45' W 118°16'0 0.0
2015-Jan-21 17:33N 33°45' W 118°16'0 0.0
2015-Jan-21 16:19N 33°45' W 118°16'0 0.0
2015-Jan-21 15:14N 33°45' W 118°16'  
Track history (hours):
 
Tides and Currents Weather Stations Pressure Air Temp Water Temp Dewpoint Dewpoint Depression Visibility Wind Speed Wind Dir Waves Ship Positions

Island Supplier

Owner: TWO HARBORS ENT, AVALON, CA. More information available from US FCC via Universal Licensing System and Coast Guard Vessel Documentation Center.

Last reported at 2015-Jan-28 15:33 UTC. Time now 2015-Jan-31 08:34 UTC.
Position N 33°45' W 118°16'.

Length 22 m; draft 1 m.

Type: Cargo ship. MMSI: 366765690.

Date/timePositionNaut miles runAvg speedWind from/ knotsBaromVisibWave heightAir tempDewpointWater temp
2015-Jan-28 15:33N 33°45' W 118°16'0 0.1
2015-Jan-28 14:14N 33°45' W 118°16'11 6.3
2015-Jan-28 12:33N 33°35' W 118°20'7 7.3
2015-Jan-28 11:33N 33°30' W 118°27'  
2015-Jan-23 20:28N 33°32' W 118°31'15 7.3
2015-Jan-23 18:29N 33°40' W 118°17'5 4.3
2015-Jan-23 17:25N 33°45' W 118°16'0 0.0
2015-Jan-23 15:25N 33°45' W 118°16'0 0.0
2015-Jan-23 13:13N 33°45' W 118°16'3 4.6
2015-Jan-23 12:33N 33°42' W 118°15'7 6.9
2015-Jan-23 11:33N 33°37' W 118°20'9 7.7
2015-Jan-23 10:23N 33°30' W 118°27'2 0.1
2015-Jan-22 16:33N 33°29' W 118°28'7 7.4
2015-Jan-22 15:34N 33°34' W 118°22'7 6.8
2015-Jan-22 14:34N 33°39' W 118°16'6 6.0
2015-Jan-22 13:33N 33°45' W 118°16'0 0.0
2015-Jan-21 17:33N 33°45' W 118°16'0 0.0
2015-Jan-21 16:19N 33°45' W 118°16'0 0.0
2015-Jan-21 15:14N 33°45' W 118°16'  

Dump ship's entire track history